sensor_id;sensor_type;location;lat;lon;timestamp;temperature;humidity
52381;DHT22;38310;52.796;6.942;2022-11-20T00:00:52;-2.30;99.90
52381;DHT22;38310;52.796;6.942;2022-11-20T00:03:19;-1.70;99.90
52381;DHT22;38310;52.796;6.942;2022-11-20T00:05:45;-2.20;99.90
52381;DHT22;38310;52.796;6.942;2022-11-20T00:08:11;-2.10;99.90
52381;DHT22;38310;52.796;6.942;2022-11-20T00:10:37;-2.10;99.90
52381;DHT22;38310;52.796;6.942;2022-11-20T00:13:03;-2.10;99.90
52381;DHT22;38310;52.796;6.942;2022-11-20T00:15:29;-2.10;99.90
52381;DHT22;38310;52.796;6.942;2022-11-20T00:17:55;-2.00;99.90
52381;DHT22;38310;52.796;6.942;2022-11-20T00:20:20;-0.70;99.90
52381;DHT22;38310;52.796;6.942;2022-11-20T00:22:46;-1.90;99.90
52381;DHT22;38310;52.796;6.942;2022-11-20T00:25:12;-1.80;99.90
52381;DHT22;38310;52.796;6.942;2022-11-20T00:27:38;-1.80;99.90
52381;DHT22;38310;52.796;6.942;2022-11-20T00:30:04;-1.70;99.90
52381;DHT22;38310;52.796;6.942;2022-11-20T00:32:30;-1.80;99.90
52381;DHT22;38310;52.796;6.942;2022-11-20T00:34:56;-1.70;99.90
52381;DHT22;38310;52.796;6.942;2022-11-20T00:37:22;-1.80;99.90
52381;DHT22;38310;52.796;6.942;2022-11-20T00:39:47;-1.70;99.90
52381;DHT22;38310;52.796;6.942;2022-11-20T00:42:13;-1.60;99.90
52381;DHT22;38310;52.796;6.942;2022-11-20T00:44:39;-0.20;99.90
52381;DHT22;38310;52.796;6.942;2022-11-20T00:47:04;-1.70;99.90
52381;DHT22;38310;52.796;6.942;2022-11-20T00:49:30;-1.70;99.90
52381;DHT22;38310;52.796;6.942;2022-11-20T00:51:56;-1.60;99.90
52381;DHT22;38310;52.796;6.942;2022-11-20T00:54:22;-1.60;99.90
52381;DHT22;38310;52.796;6.942;2022-11-20T00:56:47;-1.60;99.90
52381;DHT22;38310;52.796;6.942;2022-11-20T00:59:13;-1.50;99.90
52381;DHT22;38310;52.796;6.942;2022-11-20T01:01:39;-1.50;99.90
52381;DHT22;38310;52.796;6.942;2022-11-20T01:04:04;-1.50;99.90
52381;DHT22;38310;52.796;6.942;2022-11-20T01:06:33;-1.40;99.90
52381;DHT22;38310;52.796;6.942;2022-11-20T01:09:01;-1.40;99.90
52381;DHT22;38310;52.796;6.942;2022-11-20T01:11:32;-1.40;99.90
52381;DHT22;38310;52.796;6.942;2022-11-20T01:13:59;-1.40;99.90
52381;DHT22;38310;52.796;6.942;2022-11-20T01:16:31;-1.30;99.90
52381;DHT22;38310;52.796;6.942;2022-11-20T01:18:59;-1.30;99.90
52381;DHT22;38310;52.796;6.942;2022-11-20T01:21:31;-0.40;99.90
52381;DHT22;38310;52.796;6.942;2022-11-20T01:23:58;-1.30;99.90
52381;DHT22;38310;52.796;6.942;2022-11-20T01:26:26;-1.30;99.90
52381;DHT22;38310;52.796;6.942;2022-11-20T01:28:54;-1.30;99.90
52381;DHT22;38310;52.796;6.942;2022-11-20T01:31:35;-0.60;99.90
52381;DHT22;38310;52.796;6.942;2022-11-20T01:34:09;-1.20;99.90
52381;DHT22;38310;52.796;6.942;2022-11-20T01:36:36;-1.30;99.90
52381;DHT22;38310;52.796;6.942;2022-11-20T01:39:11;-1.30;99.90
52381;DHT22;38310;52.796;6.942;2022-11-20T01:41:37;-1.20;99.90
52381;DHT22;38310;52.796;6.942;2022-11-20T01:44:57;-1.10;99.90
52381;DHT22;38310;52.796;6.942;2022-11-20T01:47:45;-1.10;99.90
52381;DHT22;38310;52.796;6.942;2022-11-20T01:50:15;0.70;99.90
52381;DHT22;38310;52.796;6.942;2022-11-20T01:52:58;-1.20;99.90
52381;DHT22;38310;52.796;6.942;2022-11-20T01:55:40;-1.20;99.90
52381;DHT22;38310;52.796;6.942;2022-11-20T01:58:07;-1.20;99.90
52381;DHT22;38310;52.796;6.942;2022-11-20T02:00:33;-1.10;99.90
52381;DHT22;38310;52.796;6.942;2022-11-20T02:03:01;0.20;99.90
52381;DHT22;38310;52.796;6.942;2022-11-20T02:05:35;-1.20;99.90
52381;DHT22;38310;52.796;6.942;2022-11-20T02:08:03;-1.10;99.90
52381;DHT22;38310;52.796;6.942;2022-11-20T02:10:30;-1.00;99.90
52381;DHT22;38310;52.796;6.942;2022-11-20T02:12:56;-1.00;99.90
52381;DHT22;38310;52.796;6.942;2022-11-20T02:15:41;-1.10;99.90
52381;DHT22;38310;52.796;6.942;2022-11-20T02:18:07;0.60;99.90
52381;DHT22;38310;52.796;6.942;2022-11-20T02:20:33;-0.40;99.90
52381;DHT22;38310;52.796;6.942;2022-11-20T02:25:49;-1.00;99.90
52381;DHT22;38310;52.796;6.942;2022-11-20T02:28:17;-0.90;99.90
52381;DHT22;38310;52.796;6.942;2022-11-20T02:30:43;-0.90;99.90
52381;DHT22;38310;52.796;6.942;2022-11-20T02:33:08;-0.90;99.90
52381;DHT22;38310;52.796;6.942;2022-11-20T02:38:01;-1.00;99.90
52381;DHT22;38310;52.796;6.942;2022-11-20T02:40:28;0.50;99.90
52381;DHT22;38310;52.796;6.942;2022-11-20T02:42:55;-0.80;99.90
52381;DHT22;38310;52.796;6.942;2022-11-20T02:45:21;0.90;99.90
52381;DHT22;38310;52.796;6.942;2022-11-20T02:47:48;-0.80;99.90
52381;DHT22;38310;52.796;6.942;2022-11-20T02:50:14;0.00;99.90
52381;DHT22;38310;52.796;6.942;2022-11-20T02:52:40;-0.90;99.90
52381;DHT22;38310;52.796;6.942;2022-11-20T02:55:06;-0.80;99.90
52381;DHT22;38310;52.796;6.942;2022-11-20T02:57:31;-0.80;99.90
52381;DHT22;38310;52.796;6.942;2022-11-20T02:59:57;-0.80;99.90
52381;DHT22;38310;52.796;6.942;2022-11-20T03:02:23;-0.70;99.90
52381;DHT22;38310;52.796;6.942;2022-11-20T03:04:48;1.00;99.90
52381;DHT22;38310;52.796;6.942;2022-11-20T03:07:14;-0.60;99.90
52381;DHT22;38310;52.796;6.942;2022-11-20T03:09:40;-0.30;99.90
52381;DHT22;38310;52.796;6.942;2022-11-20T03:12:06;-0.70;99.90
52381;DHT22;38310;52.796;6.942;2022-11-20T03:14:31;-0.70;99.90
52381;DHT22;38310;52.796;6.942;2022-11-20T03:16:57;-0.60;99.90
52381;DHT22;38310;52.796;6.942;2022-11-20T03:19:24;-0.60;99.90
52381;DHT22;38310;52.796;6.942;2022-11-20T03:21:49;-0.60;99.90
52381;DHT22;38310;52.796;6.942;2022-11-20T03:24:15;-0.70;99.90
52381;DHT22;38310;52.796;6.942;2022-11-20T03:26:41;-0.60;99.90
52381;DHT22;38310;52.796;6.942;2022-11-20T03:29:07;-0.60;99.90
52381;DHT22;38310;52.796;6.942;2022-11-20T03:31:36;-0.30;99.90
52381;DHT22;38310;52.796;6.942;2022-11-20T03:34:03;-0.70;99.90
52381;DHT22;38310;52.796;6.942;2022-11-20T03:36:29;0.70;99.90
52381;DHT22;38310;52.796;6.942;2022-11-20T03:38:56;-0.70;99.90
52381;DHT22;38310;52.796;6.942;2022-11-20T03:41:24;-0.70;99.90
52381;DHT22;38310;52.796;6.942;2022-11-20T03:43:56;-0.60;99.90
52381;DHT22;38310;52.796;6.942;2022-11-20T03:46:23;-0.60;99.90
52381;DHT22;38310;52.796;6.942;2022-11-20T03:48:49;-0.50;99.90
52381;DHT22;38310;52.796;6.942;2022-11-20T03:51:17;-0.50;99.90
52381;DHT22;38310;52.796;6.942;2022-11-20T03:53:46;-0.60;99.90
52381;DHT22;38310;52.796;6.942;2022-11-20T03:56:13;-0.60;99.90
52381;DHT22;38310;52.796;6.942;2022-11-20T03:58:40;-0.50;99.90
52381;DHT22;38310;52.796;6.942;2022-11-20T04:01:26;-0.50;99.90
52381;DHT22;38310;52.796;6.942;2022-11-20T04:03:53;-0.50;99.90
52381;DHT22;38310;52.796;6.942;2022-11-20T04:06:25;-0.50;99.90
52381;DHT22;38310;52.796;6.942;2022-11-20T04:08:53;-0.40;99.90
52381;DHT22;38310;52.796;6.942;2022-11-20T04:11:21;0.90;99.90
52381;DHT22;38310;52.796;6.942;2022-11-20T04:13:58;-0.30;99.90
52381;DHT22;38310;52.796;6.942;2022-11-20T04:16:25;-0.40;99.90
52381;DHT22;38310;52.796;6.942;2022-11-20T04:18:55;-0.40;99.90
52381;DHT22;38310;52.796;6.942;2022-11-20T04:21:21;-0.40;99.90
52381;DHT22;38310;52.796;6.942;2022-11-20T04:23:48;-0.40;99.90
52381;DHT22;38310;52.796;6.942;2022-11-20T04:26:14;-0.20;99.90
52381;DHT22;38310;52.796;6.942;2022-11-20T04:28:40;-0.30;99.90
52381;DHT22;38310;52.796;6.942;2022-11-20T04:31:12;0.80;99.90
52381;DHT22;38310;52.796;6.942;2022-11-20T04:33:38;-0.20;99.90
52381;DHT22;38310;52.796;6.942;2022-11-20T04:38:31;-0.40;99.90
52381;DHT22;38310;52.796;6.942;2022-11-20T04:40:59;-0.50;99.90
52381;DHT22;38310;52.796;6.942;2022-11-20T04:43:25;-0.30;99.90
52381;DHT22;38310;52.796;6.942;2022-11-20T04:45:52;-0.40;99.90
52381;DHT22;38310;52.796;6.942;2022-11-20T04:48:18;0.20;99.90
52381;DHT22;38310;52.796;6.942;2022-11-20T04:50:43;-0.40;99.90
52381;DHT22;38310;52.796;6.942;2022-11-20T04:53:09;-0.40;99.90
52381;DHT22;38310;52.796;6.942;2022-11-20T04:55:34;0.10;99.90
52381;DHT22;38310;52.796;6.942;2022-11-20T04:58:00;0.50;99.90
52381;DHT22;38310;52.796;6.942;2022-11-20T05:00:26;-0.30;99.90
52381;DHT22;38310;52.796;6.942;2022-11-20T05:02:52;-0.30;99.90
52381;DHT22;38310;52.796;6.942;2022-11-20T05:05:18;-0.30;99.90
52381;DHT22;38310;52.796;6.942;2022-11-20T05:07:43;-0.30;99.90
52381;DHT22;38310;52.796;6.942;2022-11-20T05:10:09;0.90;99.90
52381;DHT22;38310;52.796;6.942;2022-11-20T05:12:35;-0.30;99.90
52381;DHT22;38310;52.796;6.942;2022-11-20T05:15:00;-0.30;99.90
52381;DHT22;38310;52.796;6.942;2022-11-20T05:17:26;-0.30;99.90
52381;DHT22;38310;52.796;6.942;2022-11-20T05:19:52;-0.20;99.90
52381;DHT22;38310;52.796;6.942;2022-11-20T05:22:17;-0.20;99.90
52381;DHT22;38310;52.796;6.942;2022-11-20T05:24:43;-0.20;99.90
52381;DHT22;38310;52.796;6.942;2022-11-20T05:27:09;-0.30;99.90
52381;DHT22;38310;52.796;6.942;2022-11-20T05:29:34;-0.30;99.90
52381;DHT22;38310;52.796;6.942;2022-11-20T05:32:00;-0.30;99.90
52381;DHT22;38310;52.796;6.942;2022-11-20T05:34:26;-0.20;99.90
52381;DHT22;38310;52.796;6.942;2022-11-20T05:36:51;-0.10;99.90
52381;DHT22;38310;52.796;6.942;2022-11-20T05:39:17;-0.10;99.90
52381;DHT22;38310;52.796;6.942;2022-11-20T05:41:43;1.50;99.90
52381;DHT22;38310;52.796;6.942;2022-11-20T05:44:13;-0.20;99.90
52381;DHT22;38310;52.796;6.942;2022-11-20T05:46:39;0.20;99.90
52381;DHT22;38310;52.796;6.942;2022-11-20T05:49:04;-0.20;99.90
52381;DHT22;38310;52.796;6.942;2022-11-20T05:51:30;-0.10;99.90
52381;DHT22;38310;52.796;6.942;2022-11-20T05:53:56;-0.30;99.90
52381;DHT22;38310;52.796;6.942;2022-11-20T05:56:22;-0.20;99.90
52381;DHT22;38310;52.796;6.942;2022-11-20T05:58:49;-0.20;99.90
52381;DHT22;38310;52.796;6.942;2022-11-20T06:01:18;1.40;99.90
52381;DHT22;38310;52.796;6.942;2022-11-20T06:03:44;0.40;99.90
52381;DHT22;38310;52.796;6.942;2022-11-20T06:06:14;0.90;99.90
52381;DHT22;38310;52.796;6.942;2022-11-20T06:08:40;-0.20;99.90
52381;DHT22;38310;52.796;6.942;2022-11-20T06:11:12;-0.10;99.90
52381;DHT22;38310;52.796;6.942;2022-11-20T06:13:38;0.50;99.90
52381;DHT22;38310;52.796;6.942;2022-11-20T06:16:04;-0.10;99.90
52381;DHT22;38310;52.796;6.942;2022-11-20T06:18:30;-0.10;99.90
52381;DHT22;38310;52.796;6.942;2022-11-20T06:21:05;-0.10;99.90
52381;DHT22;38310;52.796;6.942;2022-11-20T06:23:32;-0.10;99.90
52381;DHT22;38310;52.796;6.942;2022-11-20T06:26:04;1.00;99.90
52381;DHT22;38310;52.796;6.942;2022-11-20T06:28:30;-0.10;99.90
52381;DHT22;38310;52.796;6.942;2022-11-20T06:30:58;0.80;99.90
52381;DHT22;38310;52.796;6.942;2022-11-20T06:33:24;-0.20;99.90
52381;DHT22;38310;52.796;6.942;2022-11-20T06:35:50;-0.30;99.90
52381;DHT22;38310;52.796;6.942;2022-11-20T06:38:15;0.00;99.90
52381;DHT22;38310;52.796;6.942;2022-11-20T06:40:42;-0.20;99.90
52381;DHT22;38310;52.796;6.942;2022-11-20T06:43:11;-0.30;99.90
52381;DHT22;38310;52.796;6.942;2022-11-20T06:45:37;-0.20;99.90
52381;DHT22;38310;52.796;6.942;2022-11-20T06:48:03;-0.30;99.90
52381;DHT22;38310;52.796;6.942;2022-11-20T06:50:29;-0.20;99.90
52381;DHT22;38310;52.796;6.942;2022-11-20T06:52:55;-0.30;99.90
52381;DHT22;38310;52.796;6.942;2022-11-20T06:55:20;-0.20;99.90
52381;DHT22;38310;52.796;6.942;2022-11-20T06:57:46;-0.20;99.90
52381;DHT22;38310;52.796;6.942;2022-11-20T07:00:12;0.50;99.90
52381;DHT22;38310;52.796;6.942;2022-11-20T07:02:38;-0.20;99.90
52381;DHT22;38310;52.796;6.942;2022-11-20T07:05:04;-0.20;99.90
52381;DHT22;38310;52.796;6.942;2022-11-20T07:07:30;-0.10;99.90
52381;DHT22;38310;52.796;6.942;2022-11-20T07:09:55;-0.10;99.90
52381;DHT22;38310;52.796;6.942;2022-11-20T07:12:21;-0.10;99.90
52381;DHT22;38310;52.796;6.942;2022-11-20T07:14:47;-0.10;99.90
52381;DHT22;38310;52.796;6.942;2022-11-20T07:17:12;-0.10;99.90
52381;DHT22;38310;52.796;6.942;2022-11-20T07:19:38;1.00;99.90
52381;DHT22;38310;52.796;6.942;2022-11-20T07:22:04;-0.10;99.90
52381;DHT22;38310;52.796;6.942;2022-11-20T07:24:30;-0.10;99.90
52381;DHT22;38310;52.796;6.942;2022-11-20T07:26:55;-0.10;99.90
52381;DHT22;38310;52.796;6.942;2022-11-20T07:29:21;0.40;99.90
52381;DHT22;38310;52.796;6.942;2022-11-20T07:31:47;-0.10;99.90
52381;DHT22;38310;52.796;6.942;2022-11-20T07:34:12;1.30;99.90
52381;DHT22;38310;52.796;6.942;2022-11-20T07:36:39;0.60;99.90
52381;DHT22;38310;52.796;6.942;2022-11-20T07:39:05;0.00;99.90
52381;DHT22;38310;52.796;6.942;2022-11-20T07:41:30;0.00;99.90
52381;DHT22;38310;52.796;6.942;2022-11-20T07:43:56;0.00;99.90
52381;DHT22;38310;52.796;6.942;2022-11-20T07:46:22;1.50;99.90
52381;DHT22;38310;52.796;6.942;2022-11-20T07:48:48;0.20;99.90
52381;DHT22;38310;52.796;6.942;2022-11-20T07:51:13;0.10;99.90
52381;DHT22;38310;52.796;6.942;2022-11-20T07:53:39;0.10;99.90
52381;DHT22;38310;52.796;6.942;2022-11-20T07:56:05;0.20;99.90
52381;DHT22;38310;52.796;6.942;2022-11-20T07:58:31;0.20;99.90
52381;DHT22;38310;52.796;6.942;2022-11-20T08:01:02;0.50;99.90
52381;DHT22;38310;52.796;6.942;2022-11-20T08:03:29;0.10;99.90
52381;DHT22;38310;52.796;6.942;2022-11-20T08:05:58;0.10;99.90
52381;DHT22;38310;52.796;6.942;2022-11-20T08:08:25;0.10;99.90
52381;DHT22;38310;52.796;6.942;2022-11-20T08:10:51;0.00;99.90
52381;DHT22;38310;52.796;6.942;2022-11-20T08:13:16;-0.10;99.90
52381;DHT22;38310;52.796;6.942;2022-11-20T08:16:01;-0.10;99.90
52381;DHT22;38310;52.796;6.942;2022-11-20T08:18:26;-0.20;99.90
52381;DHT22;38310;52.796;6.942;2022-11-20T08:20:52;-0.30;99.90
52381;DHT22;38310;52.796;6.942;2022-11-20T08:23:18;0.00;99.90
52381;DHT22;38310;52.796;6.942;2022-11-20T08:25:43;-0.10;99.90
52381;DHT22;38310;52.796;6.942;2022-11-20T08:28:13;0.00;99.90
52381;DHT22;38310;52.796;6.942;2022-11-20T08:30:39;0.80;99.90
52381;DHT22;38310;52.796;6.942;2022-11-20T08:33:07;0.00;99.90
52381;DHT22;38310;52.796;6.942;2022-11-20T08:35:34;1.00;99.90
52381;DHT22;38310;52.796;6.942;2022-11-20T08:38:02;0.20;99.90
52381;DHT22;38310;52.796;6.942;2022-11-20T08:40:28;1.40;99.90
52381;DHT22;38310;52.796;6.942;2022-11-20T08:42:54;0.20;99.90
52381;DHT22;38310;52.796;6.942;2022-11-20T08:45:20;0.20;99.90
52381;DHT22;38310;52.796;6.942;2022-11-20T08:47:46;0.20;99.90
52381;DHT22;38310;52.796;6.942;2022-11-20T08:50:13;0.30;99.90
52381;DHT22;38310;52.796;6.942;2022-11-20T08:52:39;0.30;99.90
52381;DHT22;38310;52.796;6.942;2022-11-20T08:55:06;0.30;99.90
52381;DHT22;38310;52.796;6.942;2022-11-20T08:57:32;0.40;99.90
52381;DHT22;38310;52.796;6.942;2022-11-20T08:59:58;0.40;99.90
52381;DHT22;38310;52.796;6.942;2022-11-20T09:02:24;0.50;99.90
52381;DHT22;38310;52.796;6.942;2022-11-20T09:04:50;0.60;99.90
52381;DHT22;38310;52.796;6.942;2022-11-20T09:07:16;0.60;99.90
52381;DHT22;38310;52.796;6.942;2022-11-20T09:09:41;0.90;99.90
52381;DHT22;38310;52.796;6.942;2022-11-20T09:12:07;0.60;99.90
52381;DHT22;38310;52.796;6.942;2022-11-20T09:14:33;0.70;99.90
52381;DHT22;38310;52.796;6.942;2022-11-20T09:16:59;0.80;99.90
52381;DHT22;38310;52.796;6.942;2022-11-20T09:19:25;0.70;99.90
52381;DHT22;38310;52.796;6.942;2022-11-20T09:21:51;0.70;99.90
52381;DHT22;38310;52.796;6.942;2022-11-20T09:24:17;0.60;99.90
52381;DHT22;38310;52.796;6.942;2022-11-20T09:26:43;1.80;99.90
52381;DHT22;38310;52.796;6.942;2022-11-20T09:29:08;0.70;99.90
52381;DHT22;38310;52.796;6.942;2022-11-20T09:31:34;0.70;99.90
52381;DHT22;38310;52.796;6.942;2022-11-20T09:34:00;0.80;99.90
52381;DHT22;38310;52.796;6.942;2022-11-20T09:36:26;-0.30;99.90
52381;DHT22;38310;52.796;6.942;2022-11-20T09:38:51;0.80;99.90
52381;DHT22;38310;52.796;6.942;2022-11-20T09:44:48;0.90;99.90
52381;DHT22;38310;52.796;6.942;2022-11-20T09:54:02;1.10;99.90
52381;DHT22;38310;52.796;6.942;2022-11-20T09:56:01;1.00;99.90
52381;DHT22;38310;52.796;6.942;2022-11-20T09:58:50;1.90;99.90
52381;DHT22;38310;52.796;6.942;2022-11-20T10:01:32;1.10;99.90
52381;DHT22;38310;52.796;6.942;2022-11-20T10:04:03;1.10;99.90
52381;DHT22;38310;52.796;6.942;2022-11-20T10:09:35;1.30;99.90
52381;DHT22;38310;52.796;6.942;2022-11-20T10:15:01;1.40;99.90
52381;DHT22;38310;52.796;6.942;2022-11-20T10:29:19;2.10;99.90
52381;DHT22;38310;52.796;6.942;2022-11-20T10:31:52;2.20;99.90
52381;DHT22;38310;52.796;6.942;2022-11-20T10:37:25;3.50;99.90
52381;DHT22;38310;52.796;6.942;2022-11-20T10:40:04;2.60;99.90
52381;DHT22;38310;52.796;6.942;2022-11-20T10:42:53;3.00;99.90
52381;DHT22;38310;52.796;6.942;2022-11-20T10:47:52;3.00;99.90
52381;DHT22;38310;52.796;6.942;2022-11-20T10:50:21;3.00;99.90
52381;DHT22;38310;52.796;6.942;2022-11-20T10:53:05;3.10;99.90
52381;DHT22;38310;52.796;6.942;2022-11-20T10:55:42;3.40;99.90
52381;DHT22;38310;52.796;6.942;2022-11-20T11:01:19;3.30;99.90
52381;DHT22;38310;52.796;6.942;2022-11-20T11:03:52;3.80;99.90
52381;DHT22;38310;52.796;6.942;2022-11-20T11:06:42;3.50;99.90
52381;DHT22;38310;52.796;6.942;2022-11-20T11:09:16;3.60;99.90
52381;DHT22;38310;52.796;6.942;2022-11-20T11:11:44;3.60;99.90
52381;DHT22;38310;52.796;6.942;2022-11-20T11:14:15;3.90;99.90
52381;DHT22;38310;52.796;6.942;2022-11-20T11:16:51;3.90;99.90
52381;DHT22;38310;52.796;6.942;2022-11-20T11:19:19;4.00;99.90
52381;DHT22;38310;52.796;6.942;2022-11-20T11:21:51;3.90;99.90
52381;DHT22;38310;52.796;6.942;2022-11-20T11:26:55;4.40;99.90
52381;DHT22;38310;52.796;6.942;2022-11-20T11:29:21;3.80;99.90
52381;DHT22;38310;52.796;6.942;2022-11-20T11:31:47;3.70;99.90
52381;DHT22;38310;52.796;6.942;2022-11-20T11:34:15;3.60;99.90
52381;DHT22;38310;52.796;6.942;2022-11-20T11:36:41;4.20;99.90
52381;DHT22;38310;52.796;6.942;2022-11-20T11:39:19;3.60;99.90
52381;DHT22;38310;52.796;6.942;2022-11-20T11:41:47;3.80;99.90
52381;DHT22;38310;52.796;6.942;2022-11-20T11:47:02;3.40;99.90
52381;DHT22;38310;52.796;6.942;2022-11-20T11:49:28;3.40;99.90
52381;DHT22;38310;52.796;6.942;2022-11-20T11:52:16;3.20;99.90
52381;DHT22;38310;52.796;6.942;2022-11-20T11:54:50;2.90;99.90
52381;DHT22;38310;52.796;6.942;2022-11-20T12:00:14;3.00;99.90
52381;DHT22;38310;52.796;6.942;2022-11-20T12:05:32;3.10;99.90
52381;DHT22;38310;52.796;6.942;2022-11-20T12:10:49;3.20;99.90
52381;DHT22;38310;52.796;6.942;2022-11-20T12:13:37;3.30;99.90
52381;DHT22;38310;52.796;6.942;2022-11-20T12:16:07;3.40;99.90
52381;DHT22;38310;52.796;6.942;2022-11-20T12:18:35;4.10;99.90
52381;DHT22;38310;52.796;6.942;2022-11-20T12:21:10;3.70;99.90
52381;DHT22;38310;52.796;6.942;2022-11-20T12:24:01;4.60;99.90
52381;DHT22;38310;52.796;6.942;2022-11-20T12:37:48;8.60;99.90
52381;DHT22;38310;52.796;6.942;2022-11-20T12:46:21;7.50;99.90
52381;DHT22;38310;52.796;6.942;2022-11-20T12:49:08;7.30;99.90
52381;DHT22;38310;52.796;6.942;2022-11-20T12:51:57;7.10;99.90
52381;DHT22;38310;52.796;6.942;2022-11-20T13:07:54;5.70;99.90
52381;DHT22;38310;52.796;6.942;2022-11-20T13:10:36;6.20;99.90
52381;DHT22;38310;52.796;6.942;2022-11-20T13:13:29;6.50;99.90
52381;DHT22;38310;52.796;6.942;2022-11-20T13:18:38;6.60;99.90
52381;DHT22;38310;52.796;6.942;2022-11-20T13:29:30;4.80;99.90
52381;DHT22;38310;52.796;6.942;2022-11-20T13:32:22;4.30;99.90
52381;DHT22;38310;52.796;6.942;2022-11-20T13:35:08;4.30;99.90
52381;DHT22;38310;52.796;6.942;2022-11-20T13:37:38;4.10;99.90
52381;DHT22;38310;52.796;6.942;2022-11-20T13:40:20;4.00;99.90
52381;DHT22;38310;52.796;6.942;2022-11-20T13:42:56;4.20;99.90
52381;DHT22;38310;52.796;6.942;2022-11-20T13:45:31;4.30;99.90
52381;DHT22;38310;52.796;6.942;2022-11-20T13:48:02;4.50;99.90
52381;DHT22;38310;52.796;6.942;2022-11-20T13:53:46;4.40;99.90
52381;DHT22;38310;52.796;6.942;2022-11-20T13:55:57;4.20;99.90
52381;DHT22;38310;52.796;6.942;2022-11-20T14:01:14;4.10;99.90
52381;DHT22;38310;52.796;6.942;2022-11-20T14:03:41;4.00;99.90
52381;DHT22;38310;52.796;6.942;2022-11-20T14:06:34;4.80;99.90
52381;DHT22;38310;52.796;6.942;2022-11-20T14:08:59;3.80;99.90
52381;DHT22;38310;52.796;6.942;2022-11-20T14:11:27;3.70;99.90
52381;DHT22;38310;52.796;6.942;2022-11-20T14:16:21;4.00;99.90
52381;DHT22;38310;52.796;6.942;2022-11-20T14:18:47;3.60;99.90
52381;DHT22;38310;52.796;6.942;2022-11-20T14:21:22;3.50;99.90
52381;DHT22;38310;52.796;6.942;2022-11-20T14:23:48;3.50;99.90
52381;DHT22;38310;52.796;6.942;2022-11-20T14:26:17;3.50;99.90
52381;DHT22;38310;52.796;6.942;2022-11-20T14:28:49;3.40;99.90
52381;DHT22;38310;52.796;6.942;2022-11-20T14:31:23;3.40;99.90
52381;DHT22;38310;52.796;6.942;2022-11-20T14:33:49;4.80;99.90
52381;DHT22;38310;52.796;6.942;2022-11-20T14:36:20;4.20;99.90
52381;DHT22;38310;52.796;6.942;2022-11-20T14:38:47;3.30;99.90
52381;DHT22;38310;52.796;6.942;2022-11-20T14:41:21;3.20;99.90
52381;DHT22;38310;52.796;6.942;2022-11-20T14:43:53;3.10;99.90
52381;DHT22;38310;52.796;6.942;2022-11-20T14:46:21;3.90;99.90
52381;DHT22;38310;52.796;6.942;2022-11-20T14:48:50;2.90;99.90
52381;DHT22;38310;52.796;6.942;2022-11-20T14:51:43;2.80;99.90
52381;DHT22;38310;52.796;6.942;2022-11-20T14:54:12;2.80;99.90
52381;DHT22;38310;52.796;6.942;2022-11-20T14:56:39;2.70;99.90
52381;DHT22;38310;52.796;6.942;2022-11-20T14:59:05;2.60;99.90
52381;DHT22;38310;52.796;6.942;2022-11-20T15:01:33;3.10;99.90
52381;DHT22;38310;52.796;6.942;2022-11-20T15:04:07;2.60;99.90
52381;DHT22;38310;52.796;6.942;2022-11-20T15:06:35;2.60;99.90
52381;DHT22;38310;52.796;6.942;2022-11-20T15:09:03;2.50;99.90
52381;DHT22;38310;52.796;6.942;2022-11-20T15:11:33;3.00;99.90
52381;DHT22;38310;52.796;6.942;2022-11-20T15:14:05;2.40;99.90
52381;DHT22;38310;52.796;6.942;2022-11-20T15:16:32;3.00;99.90
52381;DHT22;38310;52.796;6.942;2022-11-20T15:18:58;2.40;99.90
52381;DHT22;38310;52.796;6.942;2022-11-20T15:21:25;2.30;99.90
52381;DHT22;38310;52.796;6.942;2022-11-20T15:23:50;2.30;99.90
52381;DHT22;38310;52.796;6.942;2022-11-20T15:26:26;2.30;99.90
52381;DHT22;38310;52.796;6.942;2022-11-20T15:28:53;2.30;99.90
52381;DHT22;38310;52.796;6.942;2022-11-20T15:31:23;2.30;99.90
52381;DHT22;38310;52.796;6.942;2022-11-20T15:33:49;2.20;99.90
52381;DHT22;38310;52.796;6.942;2022-11-20T15:36:15;2.20;99.90
52381;DHT22;38310;52.796;6.942;2022-11-20T15:38:41;2.20;99.90
52381;DHT22;38310;52.796;6.942;2022-11-20T15:41:07;2.20;99.90
52381;DHT22;38310;52.796;6.942;2022-11-20T15:43:33;2.10;99.90
52381;DHT22;38310;52.796;6.942;2022-11-20T15:48:34;2.10;99.90
52381;DHT22;38310;52.796;6.942;2022-11-20T15:51:11;2.10;99.90
52381;DHT22;38310;52.796;6.942;2022-11-20T15:53:41;2.00;99.90
52381;DHT22;38310;52.796;6.942;2022-11-20T15:56:14;2.00;99.90
52381;DHT22;38310;52.796;6.942;2022-11-20T15:58:40;2.30;99.90
52381;DHT22;38310;52.796;6.942;2022-11-20T16:01:17;2.30;99.90
52381;DHT22;38310;52.796;6.942;2022-11-20T16:03:43;2.00;99.90
52381;DHT22;38310;52.796;6.942;2022-11-20T16:06:09;1.90;99.90
52381;DHT22;38310;52.796;6.942;2022-11-20T16:08:35;1.90;99.90
52381;DHT22;38310;52.796;6.942;2022-11-20T16:11:01;3.00;99.90
52381;DHT22;38310;52.796;6.942;2022-11-20T16:13:27;1.80;99.90
52381;DHT22;38310;52.796;6.942;2022-11-20T16:16:19;1.80;99.90
52381;DHT22;38310;52.796;6.942;2022-11-20T16:18:46;2.90;99.90
52381;DHT22;38310;52.796;6.942;2022-11-20T16:21:12;2.30;99.90
52381;DHT22;38310;52.796;6.942;2022-11-20T16:23:41;1.70;99.90
52381;DHT22;38310;52.796;6.942;2022-11-20T16:26:16;1.90;99.90
52381;DHT22;38310;52.796;6.942;2022-11-20T16:28:46;1.70;99.90
52381;DHT22;38310;52.796;6.942;2022-11-20T16:31:17;1.70;99.90
52381;DHT22;38310;52.796;6.942;2022-11-20T16:33:43;1.70;99.90
52381;DHT22;38310;52.796;6.942;2022-11-20T16:36:15;1.60;99.90
52381;DHT22;38310;52.796;6.942;2022-11-20T16:38:41;1.70;99.90
52381;DHT22;38310;52.796;6.942;2022-11-20T16:41:07;2.50;99.90
52381;DHT22;38310;52.796;6.942;2022-11-20T16:46:21;1.60;99.90
52381;DHT22;38310;52.796;6.942;2022-11-20T16:48:57;2.20;99.90
52381;DHT22;38310;52.796;6.942;2022-11-20T16:51:25;1.60;99.90
52381;DHT22;38310;52.796;6.942;2022-11-20T16:53:51;2.00;99.90
52381;DHT22;38310;52.796;6.942;2022-11-20T16:56:19;1.50;99.90
52381;DHT22;38310;52.796;6.942;2022-11-20T16:58:46;1.50;99.90
52381;DHT22;38310;52.796;6.942;2022-11-20T17:01:15;1.50;99.90
52381;DHT22;38310;52.796;6.942;2022-11-20T17:03:42;1.50;99.90
52381;DHT22;38310;52.796;6.942;2022-11-20T17:06:15;1.40;99.90
52381;DHT22;38310;52.796;6.942;2022-11-20T17:08:41;1.40;99.90
52381;DHT22;38310;52.796;6.942;2022-11-20T17:11:08;2.70;99.90
52381;DHT22;38310;52.796;6.942;2022-11-20T17:13:35;2.00;99.90
52381;DHT22;38310;52.796;6.942;2022-11-20T17:16:12;1.50;99.90
52381;DHT22;38310;52.796;6.942;2022-11-20T17:18:39;1.50;99.90
52381;DHT22;38310;52.796;6.942;2022-11-20T17:21:06;1.50;99.90
52381;DHT22;38310;52.796;6.942;2022-11-20T17:23:38;1.50;99.90
52381;DHT22;38310;52.796;6.942;2022-11-20T17:28:32;1.80;99.90
52381;DHT22;38310;52.796;6.942;2022-11-20T17:31:06;1.50;99.90
52381;DHT22;38310;52.796;6.942;2022-11-20T17:33:38;1.40;99.90
52381;DHT22;38310;52.796;6.942;2022-11-20T17:36:05;2.30;99.90
52381;DHT22;38310;52.796;6.942;2022-11-20T17:38:31;1.50;99.90
52381;DHT22;38310;52.796;6.942;2022-11-20T17:41:17;2.70;99.90
52381;DHT22;38310;52.796;6.942;2022-11-20T17:43:44;1.50;99.90
52381;DHT22;38310;52.796;6.942;2022-11-20T17:46:12;2.80;99.90